sensor_id;sensor_type;location;lat;lon;timestamp;temperature;humidity
18781;DHT22;9519;51.890;8.970;2023-03-01T00:08:19;-0.30;88.80
18781;DHT22;9519;51.890;8.970;2023-03-01T00:13:21;-0.50;99.90
18781;DHT22;9519;51.890;8.970;2023-03-01T00:23:27;-0.50;89.00
18781;DHT22;9519;51.890;8.970;2023-03-01T00:38:37;-0.60;89.20
18781;DHT22;9519;51.890;8.970;2023-03-01T00:43:41;-0.60;89.40
18781;DHT22;9519;51.890;8.970;2023-03-01T00:53:50;-0.70;89.70
18781;DHT22;9519;51.890;8.970;2023-03-01T01:03:57;-0.70;90.00
18781;DHT22;9519;51.890;8.970;2023-03-01T01:09:03;-0.80;90.00
18781;DHT22;9519;51.890;8.970;2023-03-01T01:24:13;-0.90;90.00
18781;DHT22;9519;51.890;8.970;2023-03-01T01:34:21;-1.00;90.10
18781;DHT22;9519;51.890;8.970;2023-03-01T01:39:24;-1.10;90.10
18781;DHT22;9519;51.890;8.970;2023-03-01T01:44:27;-1.20;90.20
18781;DHT22;9519;51.890;8.970;2023-03-01T01:49:33;-1.20;90.20
18781;DHT22;9519;51.890;8.970;2023-03-01T01:54:43;-1.20;90.30
18781;DHT22;9519;51.890;8.970;2023-03-01T01:59:50;-1.30;90.30
18781;DHT22;9519;51.890;8.970;2023-03-01T02:05:00;-1.30;90.40
18781;DHT22;9519;51.890;8.970;2023-03-01T02:10:13;-1.30;90.40
18781;DHT22;9519;51.890;8.970;2023-03-01T02:20:23;-1.40;90.40
18781;DHT22;9519;51.890;8.970;2023-03-01T02:25:39;-1.40;90.50
18781;DHT22;9519;51.890;8.970;2023-03-01T02:30:49;-1.50;90.50
18781;DHT22;9519;51.890;8.970;2023-03-01T02:36:28;-1.50;90.60
18781;DHT22;9519;51.890;8.970;2023-03-01T02:41:36;-1.50;90.70
18781;DHT22;9519;51.890;8.970;2023-03-01T02:46:46;-1.60;90.70
18781;DHT22;9519;51.890;8.970;2023-03-01T02:52:16;-1.60;90.70
18781;DHT22;9519;51.890;8.970;2023-03-01T02:57:27;-1.70;90.80
18781;DHT22;9519;51.890;8.970;2023-03-01T03:02:33;-1.70;90.80
18781;DHT22;9519;51.890;8.970;2023-03-01T03:07:40;-1.80;90.80
18781;DHT22;9519;51.890;8.970;2023-03-01T03:17:48;-1.80;91.00
18781;DHT22;9519;51.890;8.970;2023-03-01T03:22:52;-1.80;91.00
18781;DHT22;9519;51.890;8.970;2023-03-01T03:27:57;-1.80;91.10
18781;DHT22;9519;51.890;8.970;2023-03-01T03:33:00;-1.80;91.20
18781;DHT22;9519;51.890;8.970;2023-03-01T03:38:06;-1.90;91.20
18781;DHT22;9519;51.890;8.970;2023-03-01T03:43:17;-1.80;91.50
18781;DHT22;9519;51.890;8.970;2023-03-01T03:48:23;-1.80;91.60
18781;DHT22;9519;51.890;8.970;2023-03-01T03:53:27;-1.70;91.80
18781;DHT22;9519;51.890;8.970;2023-03-01T04:03:34;-1.70;91.80
18781;DHT22;9519;51.890;8.970;2023-03-01T04:18:42;-1.90;91.90
18781;DHT22;9519;51.890;8.970;2023-03-01T04:33:54;-2.10;92.00
18781;DHT22;9519;51.890;8.970;2023-03-01T04:49:03;-2.10;92.20
18781;DHT22;9519;51.890;8.970;2023-03-01T05:04:14;-2.30;92.20
18781;DHT22;9519;51.890;8.970;2023-03-01T05:19:23;-2.30;92.30
18781;DHT22;9519;51.890;8.970;2023-03-01T05:24:29;-2.40;92.30
18781;DHT22;9519;51.890;8.970;2023-03-01T05:34:36;-2.50;92.40
18781;DHT22;9519;51.890;8.970;2023-03-01T05:49:46;-2.50;92.40
18781;DHT22;9519;51.890;8.970;2023-03-01T06:04:56;-2.60;92.50
18781;DHT22;9519;51.890;8.970;2023-03-01T06:20:09;-2.80;92.50
18781;DHT22;9519;51.890;8.970;2023-03-01T06:25:14;-2.70;92.60
18781;DHT22;9519;51.890;8.970;2023-03-01T06:30:20;-3.00;92.60
18781;DHT22;9519;51.890;8.970;2023-03-01T06:35:24;-2.70;92.70
18781;DHT22;9519;51.890;8.970;2023-03-01T06:40:31;-2.80;92.70
18781;DHT22;9519;51.890;8.970;2023-03-01T06:50:40;-2.70;92.80
18781;DHT22;9519;51.890;8.970;2023-03-01T07:05:50;-2.60;93.10
18781;DHT22;9519;51.890;8.970;2023-03-01T07:10:55;-2.50;93.20
18781;DHT22;9519;51.890;8.970;2023-03-01T07:21:05;-2.30;93.40
18781;DHT22;9519;51.890;8.970;2023-03-01T07:36:14;-1.90;93.80
18781;DHT22;9519;51.890;8.970;2023-03-01T07:51:22;-1.60;94.10
18781;DHT22;9519;51.890;8.970;2023-03-01T08:06:34;-1.20;94.50
18781;DHT22;9519;51.890;8.970;2023-03-01T08:21:42;-0.60;95.00
18781;DHT22;9519;51.890;8.970;2023-03-01T08:36:51;-0.10;95.30
18781;DHT22;9519;51.890;8.970;2023-03-01T08:46:56;0.30;99.90
18781;DHT22;9519;51.890;8.970;2023-03-01T08:52:01;0.60;99.90
18781;DHT22;9519;51.890;8.970;2023-03-01T08:57:03;1.10;99.90
18781;DHT22;9519;51.890;8.970;2023-03-01T09:02:10;1.20;99.90
18781;DHT22;9519;51.890;8.970;2023-03-01T09:07:15;0.90;99.90
18781;DHT22;9519;51.890;8.970;2023-03-01T09:17:19;1.60;99.90
18781;DHT22;9519;51.890;8.970;2023-03-01T09:22:23;2.00;99.90
18781;DHT22;9519;51.890;8.970;2023-03-01T09:27:25;1.90;99.90
18781;DHT22;9519;51.890;8.970;2023-03-01T09:32:27;2.40;99.90
18781;DHT22;9519;51.890;8.970;2023-03-01T09:37:34;2.40;95.50
18781;DHT22;9519;51.890;8.970;2023-03-01T09:42:46;2.50;99.90
18781;DHT22;9519;51.890;8.970;2023-03-01T09:47:54;2.80;95.00
18781;DHT22;9519;51.890;8.970;2023-03-01T09:53:02;3.40;99.90
18781;DHT22;9519;51.890;8.970;2023-03-01T09:58:29;3.20;99.90
18781;DHT22;9519;51.890;8.970;2023-03-01T10:03:42;3.30;99.90
18781;DHT22;9519;51.890;8.970;2023-03-01T10:08:53;3.70;99.90
18781;DHT22;9519;51.890;8.970;2023-03-01T10:14:02;3.50;99.90
18781;DHT22;9519;51.890;8.970;2023-03-01T10:19:12;3.80;99.90
18781;DHT22;9519;51.890;8.970;2023-03-01T10:24:20;4.10;99.90
18781;DHT22;9519;51.890;8.970;2023-03-01T10:29:25;4.40;99.90
18781;DHT22;9519;51.890;8.970;2023-03-01T10:34:34;4.40;99.90
18781;DHT22;9519;51.890;8.970;2023-03-01T10:39:54;4.50;99.90
18781;DHT22;9519;51.890;8.970;2023-03-01T10:45:17;4.80;99.90
18781;DHT22;9519;51.890;8.970;2023-03-01T10:50:33;4.80;99.90
18781;DHT22;9519;51.890;8.970;2023-03-01T10:55:40;4.60;99.90
18781;DHT22;9519;51.890;8.970;2023-03-01T11:00:47;4.60;92.90
18781;DHT22;9519;51.890;8.970;2023-03-01T11:05:57;5.30;99.90
18781;DHT22;9519;51.890;8.970;2023-03-01T11:11:17;5.20;99.90
18781;DHT22;9519;51.890;8.970;2023-03-01T11:16:25;5.00;99.90
18781;DHT22;9519;51.890;8.970;2023-03-01T11:21:35;4.80;99.90
18781;DHT22;9519;51.890;8.970;2023-03-01T11:26:44;5.00;91.40
18781;DHT22;9519;51.890;8.970;2023-03-01T11:31:51;5.10;91.10
18781;DHT22;9519;51.890;8.970;2023-03-01T11:36:59;5.20;90.90
18781;DHT22;9519;51.890;8.970;2023-03-01T11:42:13;5.30;90.80
18781;DHT22;9519;51.890;8.970;2023-03-01T11:47:38;5.40;90.70
18781;DHT22;9519;51.890;8.970;2023-03-01T11:53:13;5.50;90.30
18781;DHT22;9519;51.890;8.970;2023-03-01T11:58:45;6.00;99.90
18781;DHT22;9519;51.890;8.970;2023-03-01T12:04:20;5.70;89.80
18781;DHT22;9519;51.890;8.970;2023-03-01T12:10:13;6.20;99.90
18781;DHT22;9519;51.890;8.970;2023-03-01T12:15:49;5.70;88.30
18781;DHT22;9519;51.890;8.970;2023-03-01T12:21:09;6.20;99.90
18781;DHT22;9519;51.890;8.970;2023-03-01T12:26:21;5.90;99.90
18781;DHT22;9519;51.890;8.970;2023-03-01T12:31:44;6.00;86.20
18781;DHT22;9519;51.890;8.970;2023-03-01T12:37:25;6.00;86.00
18781;DHT22;9519;51.890;8.970;2023-03-01T12:42:40;6.10;86.30
18781;DHT22;9519;51.890;8.970;2023-03-01T12:48:14;6.30;86.30
18781;DHT22;9519;51.890;8.970;2023-03-01T12:53:29;6.40;85.30
18781;DHT22;9519;51.890;8.970;2023-03-01T12:58:37;6.40;84.50
18781;DHT22;9519;51.890;8.970;2023-03-01T13:04:15;6.50;85.00
18781;DHT22;9519;51.890;8.970;2023-03-01T13:09:29;6.60;84.30
18781;DHT22;9519;51.890;8.970;2023-03-01T13:14:45;6.70;83.50
18781;DHT22;9519;51.890;8.970;2023-03-01T13:19:57;6.80;82.20
18781;DHT22;9519;51.890;8.970;2023-03-01T13:25:13;6.80;82.40
18781;DHT22;9519;51.890;8.970;2023-03-01T13:30:39;6.80;82.00
18781;DHT22;9519;51.890;8.970;2023-03-01T13:35:45;6.90;81.10
18781;DHT22;9519;51.890;8.970;2023-03-01T13:40:58;6.90;81.70
18781;DHT22;9519;51.890;8.970;2023-03-01T13:46:08;7.00;81.40
18781;DHT22;9519;51.890;8.970;2023-03-01T13:51:14;7.10;81.50
18781;DHT22;9519;51.890;8.970;2023-03-01T13:56:19;7.20;80.80
18781;DHT22;9519;51.890;8.970;2023-03-01T14:01:27;7.30;80.40
18781;DHT22;9519;51.890;8.970;2023-03-01T14:06:33;7.40;81.20
18781;DHT22;9519;51.890;8.970;2023-03-01T14:11:59;7.50;79.70
18781;DHT22;9519;51.890;8.970;2023-03-01T14:17:44;7.60;80.00
18781;DHT22;9519;51.890;8.970;2023-03-01T14:22:57;7.70;79.90
18781;DHT22;9519;51.890;8.970;2023-03-01T14:28:03;7.90;79.30
18781;DHT22;9519;51.890;8.970;2023-03-01T14:33:20;7.90;78.90
18781;DHT22;9519;51.890;8.970;2023-03-01T14:38:32;8.10;78.50
18781;DHT22;9519;51.890;8.970;2023-03-01T14:43:36;8.10;77.50
18781;DHT22;9519;51.890;8.970;2023-03-01T14:48:40;8.30;77.70
18781;DHT22;9519;51.890;8.970;2023-03-01T14:53:44;8.50;78.40
18781;DHT22;9519;51.890;8.970;2023-03-01T14:58:46;8.80;77.80
18781;DHT22;9519;51.890;8.970;2023-03-01T15:03:53;8.90;78.00
18781;DHT22;9519;51.890;8.970;2023-03-01T15:08:57;9.00;76.30
18781;DHT22;9519;51.890;8.970;2023-03-01T15:14:00;9.10;76.80
18781;DHT22;9519;51.890;8.970;2023-03-01T15:19:05;9.20;76.20
18781;DHT22;9519;51.890;8.970;2023-03-01T15:24:17;9.20;75.90
18781;DHT22;9519;51.890;8.970;2023-03-01T15:29:26;9.40;75.30
18781;DHT22;9519;51.890;8.970;2023-03-01T15:34:31;9.40;74.00
18781;DHT22;9519;51.890;8.970;2023-03-01T15:39:37;9.40;74.60
18781;DHT22;9519;51.890;8.970;2023-03-01T15:44:43;9.30;73.80
18781;DHT22;9519;51.890;8.970;2023-03-01T15:49:46;9.20;73.60
18781;DHT22;9519;51.890;8.970;2023-03-01T15:54:49;9.10;72.50
18781;DHT22;9519;51.890;8.970;2023-03-01T15:59:51;9.00;73.20
18781;DHT22;9519;51.890;8.970;2023-03-01T16:04:53;8.60;72.00
18781;DHT22;9519;51.890;8.970;2023-03-01T16:09:58;8.30;71.70
18781;DHT22;9519;51.890;8.970;2023-03-01T16:15:00;7.90;71.40
18781;DHT22;9519;51.890;8.970;2023-03-01T16:20:03;7.50;71.60
18781;DHT22;9519;51.890;8.970;2023-03-01T16:25:08;7.20;71.90
18781;DHT22;9519;51.890;8.970;2023-03-01T16:30:12;7.00;94.40
18781;DHT22;9519;51.890;8.970;2023-03-01T16:35:17;6.70;72.50
18781;DHT22;9519;51.890;8.970;2023-03-01T16:40:24;6.50;72.70
18781;DHT22;9519;51.890;8.970;2023-03-01T16:45:34;6.20;96.50
18781;DHT22;9519;51.890;8.970;2023-03-01T16:50:37;6.00;73.30
18781;DHT22;9519;51.890;8.970;2023-03-01T16:55:40;6.00;97.00
18781;DHT22;9519;51.890;8.970;2023-03-01T17:00:45;5.70;74.20
18781;DHT22;9519;51.890;8.970;2023-03-01T17:05:48;5.50;97.30
18781;DHT22;9519;51.890;8.970;2023-03-01T17:10:51;5.30;97.80
18781;DHT22;9519;51.890;8.970;2023-03-01T17:15:53;5.60;97.70
18781;DHT22;9519;51.890;8.970;2023-03-01T17:20:55;5.00;97.90
18781;DHT22;9519;51.890;8.970;2023-03-01T17:25:59;5.20;75.70
18781;DHT22;9519;51.890;8.970;2023-03-01T17:31:03;5.20;97.90
18781;DHT22;9519;51.890;8.970;2023-03-01T17:36:07;5.20;99.30
18781;DHT22;9519;51.890;8.970;2023-03-01T17:41:10;4.90;98.60
18781;DHT22;9519;51.890;8.970;2023-03-01T17:46:12;5.00;98.90
18781;DHT22;9519;51.890;8.970;2023-03-01T17:51:14;4.50;98.40
18781;DHT22;9519;51.890;8.970;2023-03-01T17:56:18;4.70;99.40
18781;DHT22;9519;51.890;8.970;2023-03-01T18:01:21;4.70;99.30
18781;DHT22;9519;51.890;8.970;2023-03-01T18:06:26;4.50;77.70
18781;DHT22;9519;51.890;8.970;2023-03-01T18:11:32;4.20;99.80
18781;DHT22;9519;51.890;8.970;2023-03-01T18:16:35;4.30;99.30
18781;DHT22;9519;51.890;8.970;2023-03-01T18:21:39;4.30;99.70
18781;DHT22;9519;51.890;8.970;2023-03-01T18:26:42;4.60;92.80
18781;DHT22;9519;51.890;8.970;2023-03-01T18:31:44;4.00;99.70
18781;DHT22;9519;51.890;8.970;2023-03-01T18:36:46;4.50;99.90
18781;DHT22;9519;51.890;8.970;2023-03-01T18:41:52;4.20;99.90
18781;DHT22;9519;51.890;8.970;2023-03-01T18:46:55;4.10;99.90
18781;DHT22;9519;51.890;8.970;2023-03-01T18:51:57;4.10;99.90
18781;DHT22;9519;51.890;8.970;2023-03-01T18:57:01;4.30;99.90
18781;DHT22;9519;51.890;8.970;2023-03-01T19:02:03;4.00;99.90
18781;DHT22;9519;51.890;8.970;2023-03-01T19:07:05;3.90;99.90
18781;DHT22;9519;51.890;8.970;2023-03-01T19:12:08;3.70;99.90
18781;DHT22;9519;51.890;8.970;2023-03-01T19:17:11;4.00;99.90
18781;DHT22;9519;51.890;8.970;2023-03-01T19:22:13;3.80;99.90
18781;DHT22;9519;51.890;8.970;2023-03-01T19:27:16;3.70;99.90
18781;DHT22;9519;51.890;8.970;2023-03-01T19:32:18;3.50;99.90
18781;DHT22;9519;51.890;8.970;2023-03-01T19:37:20;3.10;99.90
18781;DHT22;9519;51.890;8.970;2023-03-01T19:42:24;3.50;99.90
18781;DHT22;9519;51.890;8.970;2023-03-01T19:52:30;3.40;99.90
18781;DHT22;9519;51.890;8.970;2023-03-01T19:57:33;3.40;99.90
18781;DHT22;9519;51.890;8.970;2023-03-01T20:02:35;3.60;99.90
18781;DHT22;9519;51.890;8.970;2023-03-01T20:07:37;3.50;99.90
18781;DHT22;9519;51.890;8.970;2023-03-01T20:12:40;3.30;99.90
18781;DHT22;9519;51.890;8.970;2023-03-01T20:17:44;3.50;99.90
18781;DHT22;9519;51.890;8.970;2023-03-01T20:22:47;3.10;99.90
18781;DHT22;9519;51.890;8.970;2023-03-01T20:27:50;3.20;99.90
18781;DHT22;9519;51.890;8.970;2023-03-01T20:42:59;3.00;99.90
18781;DHT22;9519;51.890;8.970;2023-03-01T20:53:04;2.90;99.90
18781;DHT22;9519;51.890;8.970;2023-03-01T20:58:07;3.00;99.90
18781;DHT22;9519;51.890;8.970;2023-03-01T21:03:09;2.90;99.90
18781;DHT22;9519;51.890;8.970;2023-03-01T21:08:11;2.90;99.90
18781;DHT22;9519;51.890;8.970;2023-03-01T21:13:15;3.20;99.90
18781;DHT22;9519;51.890;8.970;2023-03-01T21:18:17;2.50;99.90
18781;DHT22;9519;51.890;8.970;2023-03-01T21:23:19;2.60;96.50
18781;DHT22;9519;51.890;8.970;2023-03-01T21:28:22;2.60;81.80
18781;DHT22;9519;51.890;8.970;2023-03-01T21:33:24;2.60;99.90
18781;DHT22;9519;51.890;8.970;2023-03-01T21:38:28;2.70;99.90
18781;DHT22;9519;51.890;8.970;2023-03-01T21:43:33;2.70;99.90
18781;DHT22;9519;51.890;8.970;2023-03-01T21:48:36;2.50;99.90
18781;DHT22;9519;51.890;8.970;2023-03-01T21:58:41;3.00;99.90
18781;DHT22;9519;51.890;8.970;2023-03-01T22:03:44;2.50;81.80
18781;DHT22;9519;51.890;8.970;2023-03-01T22:08:48;2.40;99.90
18781;DHT22;9519;51.890;8.970;2023-03-01T22:13:53;2.40;99.90
18781;DHT22;9519;51.890;8.970;2023-03-01T22:18:57;2.50;82.00
18781;DHT22;9519;51.890;8.970;2023-03-01T22:23:59;2.40;99.90
18781;DHT22;9519;51.890;8.970;2023-03-01T22:29:04;2.60;99.90
18781;DHT22;9519;51.890;8.970;2023-03-01T22:34:08;2.60;99.90
18781;DHT22;9519;51.890;8.970;2023-03-01T22:39:12;2.60;82.20
18781;DHT22;9519;51.890;8.970;2023-03-01T22:44:19;2.80;99.90
18781;DHT22;9519;51.890;8.970;2023-03-01T22:49:23;2.50;82.30
18781;DHT22;9519;51.890;8.970;2023-03-01T22:59:29;2.50;82.40
18781;DHT22;9519;51.890;8.970;2023-03-01T23:04:31;2.50;99.90
18781;DHT22;9519;51.890;8.970;2023-03-01T23:14:37;2.20;99.90
18781;DHT22;9519;51.890;8.970;2023-03-01T23:19:41;2.50;99.90
18781;DHT22;9519;51.890;8.970;2023-03-01T23:24:43;2.50;99.90
18781;DHT22;9519;51.890;8.970;2023-03-01T23:29:46;2.30;99.90
18781;DHT22;9519;51.890;8.970;2023-03-01T23:34:48;2.60;99.90
18781;DHT22;9519;51.890;8.970;2023-03-01T23:39:50;2.30;90.80
18781;DHT22;9519;51.890;8.970;2023-03-01T23:44:54;2.20;99.90
18781;DHT22;9519;51.890;8.970;2023-03-01T23:49:56;2.30;99.90
18781;DHT22;9519;51.890;8.970;2023-03-01T23:54:58;2.20;99.90
